GMTN  Saniat Rmel  Airport

Morocco

Add Bookmark
ICAO GMTN
IATA TTU
Type Airport
Status Operational
Latitude
35° 35' 39" N
35.594299
Longitude
5° 19' 12" W
-5.320020
Local (DST + 1) UTC (GMT 0)
Apr 27, 2015 06:33 Apr 27, 2015 05:33
Sunrise-Sunset Local UTC
Begin Civil Twilight 06:05 05:05
Sunrise 06:32 05:32
Sunset 08:05 19:05
End Civil Twilight 08:32 19:32
VFR
VFR
MVFR
MVFR
IFR
VFR
LIFR
VFR
Unknown
Unavailable

Current Weather

METAR Observed
GMTN 270500Z AUTO 27016KT R24///// /// 16/11 Q1016 Mon, Apr 27, 2015 @ 05:00 UTC
(33 Minutes ago)
Wind Conditions
270° at 16 knots (30 kph)
  • No significant weather
Temperatures Readings Precipitation
Current Temp
16°C
61°F
Dewpoint
11°C
52°F
Humidity 72%
Altimeter 30" Hg
Sea Level Pressure 1,016 mb
Field Elevation
10 m
33 ft
None Recorded

Additional weather within a 92.6km radius of GMTN

Map ICAO Location
GMTT 55.9km W/NW (285°)
LXGB 62km N (360°)
VFR
VFR
MVFR
MVFR
IFR
VFR
LIFR
VFR
Unknown
Unavailable
-
-

CheckWX.com is intended as a tool to help pilots better visualize weather data. It is not intended as a substitute for an official weather briefing obtained from a Flight Service Station. CheckWX.com does not meet the FAA requirements for an official pre-flight weather briefing. Therefore, it's important that pilots still call and obtain an official FSS pre-flight weather briefing.

© 2007-2015 CheckWX.com
05:33:27 UTC